createdAt,value
2023-04-23T00:00:31.567Z,77.62
2023-04-23T00:01:31.495Z,78.17
2023-04-23T00:02:31.507Z,78.78
2023-04-23T00:03:31.621Z,78.98
2023-04-23T00:04:31.498Z,79.99
2023-04-23T00:05:31.253Z,79.79
2023-04-23T00:06:31.146Z,81.21
2023-04-23T00:07:31.100Z,80.19
2023-04-23T00:08:31.036Z,80.50
2023-04-23T00:09:31.038Z,80.60
2023-04-23T00:10:30.956Z,81.01
2023-04-23T00:11:30.844Z,81.62
2023-04-23T00:12:30.785Z,82.26
2023-04-23T00:13:30.697Z,82.06
2023-04-23T00:14:30.689Z,82.47
2023-04-23T00:15:30.596Z,83.48
2023-04-23T00:16:30.586Z,83.69
2023-04-23T00:17:30.489Z,83.99
2023-04-23T00:18:30.467Z,84.20
2023-04-23T00:19:30.381Z,84.95
2023-04-23T00:20:30.310Z,85.86
2023-04-23T00:21:30.253Z,86.07
2023-04-23T00:22:30.221Z,86.37
2023-04-23T00:23:30.068Z,86.88
2023-04-23T00:24:30.010Z,86.71
2023-04-23T00:25:29.961Z,87.12
2023-04-23T00:26:29.910Z,86.92
2023-04-23T00:27:29.878Z,87.43
2023-04-23T00:28:29.765Z,88.04
2023-04-23T00:29:31.072Z,88.34
2023-04-23T00:30:29.632Z,88.34
2023-04-23T00:31:29.624Z,88.65
2023-04-23T00:32:29.569Z,88.69
2023-04-23T00:33:29.502Z,89.40
2023-04-23T00:34:29.423Z,89.50
2023-04-23T00:35:29.352Z,89.91
2023-04-23T00:36:29.297Z,89.50
2023-04-23T00:37:29.837Z,89.81
2023-04-23T00:38:29.133Z,90.01
2023-04-23T00:39:29.135Z,90.25
2023-04-23T00:41:06.420Z,90.77
2023-04-23T00:41:28.946Z,90.56
2023-04-23T00:42:28.940Z,91.17
2023-04-23T00:43:28.843Z,91.99
2023-04-23T00:44:28.777Z,91.52
2023-04-23T00:45:28.758Z,92.03
2023-04-23T00:46:28.653Z,92.64
2023-04-23T00:47:28.634Z,92.94
2023-04-23T00:48:28.537Z,93.15
2023-04-23T00:49:28.471Z,93.76
2023-04-23T00:50:28.408Z,93.76
2023-04-23T00:51:28.346Z,93.15
2023-04-23T00:52:28.325Z,92.84
2023-04-23T00:53:28.228Z,93.35
2023-04-23T00:54:28.161Z,93.35
2023-04-23T00:55:28.097Z,93.66
2023-04-23T00:56:28.004Z,94.01
2023-04-23T00:57:27.982Z,94.62
2023-04-23T00:58:48.859Z,95.23
2023-04-23T00:59:27.840Z,95.84
2023-04-23T01:00:27.751Z,95.74
2023-04-23T01:01:27.729Z,95.74
2023-04-23T01:02:27.801Z,96.04
2023-04-23T01:03:27.747Z,96.45
2023-04-23T01:04:27.595Z,96.35
2023-04-23T01:05:27.469Z,96.15
2023-04-23T01:06:27.380Z,96.04
2023-04-23T01:07:27.352Z,96.09
2023-04-23T01:08:27.302Z,96.50
2023-04-23T01:09:27.238Z,96.91
2023-04-23T01:10:27.201Z,96.91
2023-04-23T01:11:27.180Z,97.11
2023-04-23T01:12:27.033Z,97.11
2023-04-23T01:13:26.957Z,97.21
2023-04-23T01:14:26.865Z,97.31
2023-04-23T01:15:26.765Z,97.52
2023-04-23T01:16:26.812Z,97.72
2023-04-23T01:17:26.767Z,97.82
2023-04-23T01:18:26.692Z,97.82
2023-04-23T01:19:26.562Z,97.82
2023-04-23T01:20:26.515Z,98.02
2023-04-23T01:21:26.479Z,98.02
2023-04-23T01:22:27.184Z,98.33
2023-04-23T01:23:26.366Z,98.33
2023-04-23T01:24:26.277Z,98.33
2023-04-23T01:25:26.249Z,98.23
2023-04-23T01:26:26.121Z,98.23
2023-04-23T01:27:26.088Z,98.43
2023-04-23T01:28:26.049Z,98.54
2023-04-23T01:29:25.938Z,98.54
2023-04-23T01:30:25.872Z,98.64
2023-04-23T01:31:25.883Z,99.04
2023-04-23T01:32:25.819Z,98.84
2023-04-23T01:33:25.720Z,98.64
2023-04-23T01:34:42.848Z,98.74
2023-04-23T01:35:25.587Z,98.64
2023-04-23T01:36:26.354Z,98.74
2023-04-23T01:37:25.462Z,98.84
2023-04-23T01:38:26.318Z,99.04
2023-04-23T01:39:25.315Z,99.04
2023-04-23T01:40:25.253Z,98.74
2023-04-23T01:41:25.214Z,98.94
2023-04-23T01:42:25.168Z,98.84
2023-04-23T01:43:25.050Z,98.84
2023-04-23T01:44:25.052Z,98.84
2023-04-23T01:45:24.986Z,99.04
2023-04-23T01:46:24.920Z,99.04
2023-04-23T01:47:25.910Z,99.15
2023-04-23T01:48:24.751Z,99.15
2023-04-23T01:49:24.676Z,99.25
2023-04-23T01:50:24.665Z,99.25
2023-04-23T01:51:24.579Z,99.35
2023-04-23T01:52:24.522Z,99.15
2023-04-23T01:53:24.453Z,99.19
2023-04-23T01:54:24.370Z,99.29
2023-04-23T01:55:24.340Z,99.29
2023-04-23T01:56:24.261Z,99.40
2023-04-23T01:57:24.149Z,99.50
2023-04-23T01:58:47.115Z,99.50
2023-04-23T01:59:24.047Z,99.60
2023-04-23T02:00:23.981Z,99.55
2023-04-23T02:01:23.979Z,99.60
2023-04-23T02:02:23.884Z,99.66
2023-04-23T02:03:23.964Z,99.76
2023-04-23T02:04:23.914Z,99.66
2023-04-23T02:05:23.720Z,99.66
2023-04-23T02:06:23.597Z,99.55
2023-04-23T02:07:23.573Z,99.96
2023-04-23T02:08:23.535Z,99.76
2023-04-23T02:09:23.470Z,99.55
2023-04-23T02:10:23.376Z,99.50
2023-04-23T02:11:23.351Z,99.40
2023-04-23T02:12:23.231Z,99.29
2023-04-23T02:13:23.237Z,99.40
2023-04-23T02:14:24.063Z,99.40
2023-04-23T02:15:23.063Z,99.60
2023-04-23T02:16:23.064Z,99.91
2023-04-23T02:17:23.175Z,99.91
2023-04-23T02:18:22.854Z,99.80
2023-04-23T02:19:22.849Z,99.70
2023-04-23T02:20:23.817Z,99.60
2023-04-23T02:21:22.715Z,99.80
2023-04-23T02:22:22.647Z,99.70
2023-04-23T02:23:22.631Z,99.91
2023-04-23T02:24:22.527Z,99.70
2023-04-23T02:25:22.476Z,99.60
2023-04-23T02:26:22.375Z,99.80
2023-04-23T02:27:22.332Z,99.91
2023-04-23T02:28:39.752Z,99.91
2023-04-23T02:29:22.158Z,99.91
2023-04-23T02:30:22.187Z,99.99
2023-04-23T02:31:22.051Z,99.99
2023-04-23T02:32:22.018Z,99.99
2023-04-23T02:33:21.996Z,99.99
2023-04-23T02:34:21.876Z,99.99
2023-04-23T02:35:21.807Z,99.99
2023-04-23T02:36:21.713Z,99.99
2023-04-23T02:37:21.712Z,99.99
2023-04-23T02:38:22.336Z,99.99
2023-04-23T02:39:21.566Z,99.99
2023-04-23T02:40:21.495Z,99.99
2023-04-23T02:41:21.496Z,99.99
2023-04-23T02:42:21.379Z,99.99
2023-04-23T02:43:21.364Z,99.99
2023-04-23T02:44:21.214Z,99.99
2023-04-23T02:45:21.179Z,99.99
2023-04-23T02:46:42.146Z,99.99
2023-04-23T02:47:21.028Z,99.99
2023-04-23T02:48:21.016Z,99.99
2023-04-23T02:49:20.952Z,99.99
2023-04-23T02:50:20.897Z,99.99
2023-04-23T02:51:20.810Z,99.99
2023-04-23T02:52:21.347Z,99.99
2023-04-23T02:53:20.649Z,99.99
2023-04-23T02:54:20.590Z,99.99
2023-04-23T02:55:20.524Z,99.99
2023-04-23T02:56:20.477Z,99.99
2023-04-23T02:57:20.372Z,99.99
2023-04-23T02:58:20.362Z,99.99
2023-04-23T02:59:20.326Z,99.99
2023-04-23T03:00:20.289Z,99.99
2023-04-23T03:01:20.222Z,99.99
2023-04-23T03:02:20.230Z,99.99
2023-04-23T03:03:20.976Z,99.99
2023-04-23T03:04:37.804Z,99.99
2023-04-23T03:05:19.919Z,99.99
2023-04-23T03:06:19.877Z,99.75
2023-04-23T03:07:19.857Z,99.65
2023-04-23T03:08:19.739Z,99.59
2023-04-23T03:09:19.661Z,99.49
2023-04-23T03:10:19.679Z,99.69
2023-04-23T03:11:19.519Z,99.99
2023-04-23T03:12:19.481Z,99.99
2023-04-23T03:13:19.398Z,99.99
2023-04-23T03:14:19.300Z,99.90
2023-04-23T03:15:19.220Z,99.99
2023-04-23T03:16:19.234Z,99.90
2023-04-23T03:17:19.080Z,99.79
2023-04-23T03:18:19.019Z,99.54
2023-04-23T03:19:19.032Z,99.02
2023-04-23T03:20:18.931Z,99.02
2023-04-23T03:21:18.909Z,99.02
2023-04-23T03:22:18.780Z,99.13
2023-04-23T03:23:18.734Z,99.23
2023-04-23T03:24:18.753Z,99.95
2023-04-23T03:25:18.705Z,99.99
2023-04-23T03:26:18.554Z,99.99
2023-04-23T03:27:18.468Z,99.95
2023-04-23T03:28:18.442Z,99.64
2023-04-23T03:29:18.358Z,99.84
2023-04-23T03:30:18.331Z,99.84
2023-04-23T03:31:18.260Z,99.84
2023-04-23T03:32:18.226Z,99.48
2023-04-23T03:33:18.104Z,99.18
2023-04-23T03:34:18.021Z,99.79
2023-04-23T03:35:18.028Z,99.99
2023-04-23T03:36:17.996Z,99.99
2023-04-23T03:37:17.925Z,99.99
2023-04-23T03:38:17.868Z,99.99
2023-04-23T03:39:17.698Z,99.99
2023-04-23T03:40:38.629Z,99.99
2023-04-23T03:41:17.593Z,99.99
2023-04-23T03:42:17.532Z,99.99
2023-04-23T03:43:17.438Z,99.99
2023-04-23T03:44:17.376Z,99.99
2023-04-23T03:45:17.362Z,99.99
2023-04-23T03:46:17.368Z,99.99
2023-04-23T03:47:17.262Z,99.99
2023-04-23T03:48:17.205Z,99.99
2023-04-23T03:49:17.053Z,99.99
2023-04-23T03:50:17.099Z,99.99
2023-04-23T03:51:16.973Z,99.99
2023-04-23T03:52:16.900Z,99.99
2023-04-23T03:53:16.833Z,99.99
2023-04-23T03:54:16.790Z,99.99
2023-04-23T03:55:16.708Z,99.99
2023-04-23T03:56:16.642Z,99.99
2023-04-23T03:57:16.620Z,99.99
2023-04-23T03:58:16.494Z,99.99
2023-04-23T03:59:16.455Z,99.99
2023-04-23T04:00:16.430Z,99.99
2023-04-23T04:01:16.326Z,99.99
2023-04-23T04:02:16.359Z,99.99
2023-04-23T04:03:16.310Z,99.99
2023-04-23T04:04:16.365Z,99.99
2023-04-23T04:05:16.374Z,99.99
2023-04-23T04:06:16.046Z,99.99
2023-04-23T04:07:16.504Z,99.99
2023-04-23T04:08:15.884Z,99.99
2023-04-23T04:09:15.856Z,99.99
2023-04-23T04:10:15.795Z,99.99
2023-04-23T04:11:16.310Z,99.99
2023-04-23T04:12:15.635Z,99.99
2023-04-23T04:13:15.556Z,99.99
2023-04-23T04:14:15.480Z,99.99
2023-04-23T04:15:15.455Z,99.99
2023-04-23T04:16:33.861Z,99.99
2023-04-23T04:17:15.323Z,99.99
2023-04-23T04:18:15.224Z,99.99
2023-04-23T04:19:15.231Z,99.99
2023-04-23T04:20:15.107Z,99.99
2023-04-23T04:21:15.057Z,99.99
2023-04-23T04:22:15.037Z,99.99
2023-04-23T04:23:14.923Z,99.99
2023-04-23T04:24:14.879Z,99.99
2023-04-23T04:25:14.812Z,99.99
2023-04-23T04:26:14.770Z,99.99
2023-04-23T04:27:14.743Z,99.99
2023-04-23T04:28:14.656Z,99.99
2023-04-23T04:29:14.569Z,99.99
2023-04-23T04:30:14.520Z,99.99
2023-04-23T04:31:14.540Z,99.99
2023-04-23T04:32:14.375Z,99.99
2023-04-23T04:33:14.820Z,99.99
2023-04-23T04:34:35.247Z,99.99
2023-04-23T04:35:14.178Z,99.99
2023-04-23T04:36:14.175Z,99.99
2023-04-23T04:37:14.025Z,99.99
2023-04-23T04:38:13.988Z,99.99
2023-04-23T04:39:13.933Z,99.99
2023-04-23T04:40:13.874Z,99.99
2023-04-23T04:41:13.796Z,99.99
2023-04-23T04:42:13.741Z,99.99
2023-04-23T04:43:13.670Z,99.99
2023-04-23T04:44:13.611Z,99.99
2023-04-23T04:45:13.544Z,99.99
2023-04-23T04:46:13.516Z,99.99
2023-04-23T04:47:13.448Z,99.99
2023-04-23T04:48:13.360Z,99.99
2023-04-23T04:49:13.268Z,99.99
2023-04-23T04:50:13.206Z,99.99
2023-04-23T04:51:13.166Z,99.99
2023-04-23T04:52:13.111Z,99.99
2023-04-23T04:53:13.034Z,99.99
2023-04-23T04:54:13.005Z,99.99
2023-04-23T04:55:12.893Z,99.99
2023-04-23T04:56:12.845Z,99.99
2023-04-23T04:57:13.300Z,99.99
2023-04-23T04:58:12.699Z,99.99
2023-04-23T04:59:12.695Z,99.99
2023-04-23T05:00:12.642Z,99.99
2023-04-23T05:01:12.540Z,99.99
2023-04-23T05:02:12.536Z,99.99
2023-04-23T05:03:14.281Z,99.99
2023-04-23T05:04:15.259Z,99.99
2023-04-23T05:05:12.302Z,99.99
2023-04-23T05:06:12.223Z,99.99
2023-04-23T05:07:12.186Z,99.99
2023-04-23T05:08:12.085Z,99.99
2023-04-23T05:09:12.041Z,99.99
2023-04-23T05:10:29.316Z,99.99
2023-04-23T05:11:11.923Z,99.99
2023-04-23T05:12:11.836Z,99.99
2023-04-23T05:13:11.799Z,99.99
2023-04-23T05:14:11.706Z,99.99
2023-04-23T05:15:11.616Z,99.99
2023-04-23T05:16:11.621Z,99.99
2023-04-23T05:17:11.537Z,99.99
2023-04-23T05:18:11.503Z,99.99
2023-04-23T05:19:11.442Z,99.99
2023-04-23T05:20:11.360Z,99.99
2023-04-23T05:21:11.270Z,99.99
2023-04-23T05:22:11.199Z,99.99
2023-04-23T05:23:11.262Z,99.99
2023-04-23T05:24:11.118Z,99.99
2023-04-23T05:25:11.006Z,99.99
2023-04-23T05:26:10.951Z,99.99
2023-04-23T05:27:10.930Z,99.99
2023-04-23T05:28:10.807Z,99.99
2023-04-23T05:29:10.789Z,99.99
2023-04-23T05:30:10.717Z,99.99
2023-04-23T05:31:10.634Z,99.99
2023-04-23T05:32:10.676Z,99.99
2023-04-23T05:33:10.502Z,99.99
2023-04-23T05:34:10.429Z,99.99
2023-04-23T05:35:10.370Z,99.99
2023-04-23T05:36:10.326Z,99.99
2023-04-23T05:37:10.249Z,99.99
2023-04-23T05:38:10.183Z,99.99
2023-04-23T05:39:10.133Z,99.99
2023-04-23T05:40:10.327Z,99.99
2023-04-23T05:41:10.021Z,99.99
2023-04-23T05:42:09.933Z,99.99
2023-04-23T05:43:09.849Z,99.99
2023-04-23T05:44:09.832Z,99.99
2023-04-23T05:45:09.732Z,99.99
2023-04-23T05:46:09.778Z,99.99
2023-04-23T05:47:09.612Z,99.99
2023-04-23T05:48:09.577Z,99.93
2023-04-23T05:49:09.504Z,99.84
2023-04-23T05:50:09.455Z,99.84
2023-04-23T05:51:09.360Z,99.63
2023-04-23T05:52:09.331Z,99.52
2023-04-23T05:53:09.300Z,99.99
2023-04-23T05:54:09.192Z,99.84
2023-04-23T05:55:09.132Z,99.08
2023-04-23T05:56:09.082Z,98.36
2023-04-23T05:57:09.007Z,97.55
2023-04-23T05:58:10.308Z,96.73
2023-04-23T05:59:08.910Z,95.81
2023-04-23T06:00:09.304Z,95.77
2023-04-23T06:01:08.726Z,95.77
2023-04-23T06:02:08.829Z,95.26
2023-04-23T06:03:08.749Z,94.87
2023-04-23T06:04:08.749Z,94.66
2023-04-23T06:05:08.804Z,94.26
2023-04-23T06:06:08.413Z,94.35
2023-04-23T06:07:08.318Z,94.09
2023-04-23T06:08:08.285Z,94.40
2023-04-23T06:09:08.253Z,94.40
2023-04-23T06:10:08.463Z,93.93
2023-04-23T06:11:08.113Z,94.14
2023-04-23T06:12:08.034Z,94.65
2023-04-23T06:13:07.967Z,95.67
2023-04-23T06:14:07.921Z,95.16
2023-04-23T06:15:07.817Z,94.55
2023-04-23T06:16:07.858Z,93.77
2023-04-23T06:17:07.719Z,94.45
2023-04-23T06:18:07.754Z,94.24
2023-04-23T06:19:07.617Z,94.24
2023-04-23T06:20:07.537Z,93.73
2023-04-23T06:21:07.451Z,93.52
2023-04-23T06:22:07.448Z,94.24
2023-04-23T06:23:07.313Z,94.24
2023-04-23T06:24:07.275Z,94.34
2023-04-23T06:25:07.236Z,94.04
2023-04-23T06:26:07.206Z,93.38
2023-04-23T06:27:07.057Z,93.44
2023-04-23T06:28:07.061Z,92.52
2023-04-23T06:29:07.795Z,92.16
2023-04-23T06:30:06.923Z,91.44
2023-04-23T06:31:06.878Z,91.40
2023-04-23T06:32:06.795Z,92.32
2023-04-23T06:33:06.740Z,92.83
2023-04-23T06:34:06.687Z,92.52
2023-04-23T06:35:06.899Z,92.52
2023-04-23T06:36:06.484Z,92.79
2023-04-23T06:37:06.462Z,90.31
2023-04-23T06:38:06.446Z,88.85
2023-04-23T06:39:06.342Z,87.67
2023-04-23T06:40:23.599Z,85.42
2023-04-23T06:41:06.197Z,82.46
2023-04-23T06:42:06.128Z,81.37
2023-04-23T06:43:06.049Z,79.68
2023-04-23T06:44:06.006Z,77.28
2023-04-23T06:45:06.484Z,74.83
2023-04-23T06:46:05.899Z,75.24
2023-04-23T06:47:05.820Z,74.84
2023-04-23T06:48:05.861Z,76.76
2023-04-23T06:49:05.712Z,79.16
2023-04-23T06:50:05.616Z,79.20
2023-04-23T06:51:05.564Z,78.92
2023-04-23T06:52:05.538Z,78.75
2023-04-23T06:53:05.432Z,76.93
2023-04-23T06:54:05.372Z,78.63
2023-04-23T06:55:05.316Z,77.34
2023-04-23T06:56:05.279Z,80.63
2023-04-23T06:57:05.212Z,81.48
2023-04-23T06:58:26.074Z,81.07
2023-04-23T06:59:05.066Z,82.52
2023-04-23T07:00:04.971Z,80.55
2023-04-23T07:01:05.028Z,75.21
2023-04-23T07:02:04.953Z,77.14
2023-04-23T07:03:04.969Z,76.86
2023-04-23T07:04:04.801Z,75.07
2023-04-23T07:05:04.743Z,73.99
2023-04-23T07:06:04.604Z,72.67
2023-04-23T07:07:04.590Z,71.03
2023-04-23T07:08:04.515Z,70.46
2023-04-23T07:09:04.439Z,70.70
2023-04-23T07:10:05.324Z,68.12
2023-04-23T07:11:05.011Z,67.85
2023-04-23T07:12:04.248Z,68.05
2023-04-23T07:13:04.196Z,65.47
2023-04-23T07:14:04.186Z,66.14
2023-04-23T07:15:04.123Z,64.67
2023-04-23T07:17:13.213Z,66.95
2023-04-23T07:18:15.024Z,64.18
2023-04-23T07:19:14.044Z,65.01
2023-04-23T07:20:14.027Z,65.41
2023-04-23T07:21:13.949Z,64.11
2023-04-23T07:22:14.110Z,63.64
2023-04-23T07:23:13.826Z,63.28
2023-04-23T07:24:13.802Z,60.15
2023-04-23T07:25:13.691Z,60.65
2023-04-23T07:26:13.669Z,59.65
2023-04-23T07:27:13.618Z,59.20
2023-04-23T07:28:13.511Z,60.27
2023-04-23T07:29:13.458Z,63.64
2023-04-23T07:30:13.423Z,62.53
2023-04-23T07:31:13.376Z,62.70
2023-04-23T07:32:13.338Z,62.63
2023-04-23T07:33:13.226Z,62.83
2023-04-23T07:34:30.545Z,62.40
2023-04-23T07:35:13.114Z,62.80
2023-04-23T07:36:13.004Z,64.34
2023-04-23T07:37:12.941Z,60.91
2023-04-23T07:38:12.899Z,61.88
2023-04-23T07:39:12.823Z,59.88
2023-04-23T07:40:12.796Z,59.85
2023-04-23T07:41:12.713Z,59.02
2023-04-23T07:42:12.653Z,56.77
2023-04-23T07:43:12.564Z,59.74
2023-04-23T07:44:12.531Z,59.74
2023-04-23T07:45:12.472Z,60.27
2023-04-23T07:46:12.740Z,61.33
2023-04-23T07:47:12.340Z,61.83
2023-04-23T07:48:12.268Z,61.72
2023-04-23T07:49:12.224Z,61.13
2023-04-23T07:50:12.159Z,61.72
2023-04-23T07:51:13.740Z,61.02
2023-04-23T07:52:13.084Z,62.30
2023-04-23T07:53:12.113Z,59.39
2023-04-23T07:54:12.437Z,60.80
2023-04-23T07:55:20.304Z,60.36
2023-04-23T07:56:11.778Z,59.06
2023-04-23T07:57:11.727Z,61.19
2023-04-23T07:58:11.688Z,60.49
2023-04-23T07:59:11.583Z,61.72
2023-04-23T08:00:11.578Z,61.33
2023-04-23T08:01:11.512Z,61.80
2023-04-23T08:02:11.518Z,61.24
2023-04-23T08:03:11.449Z,58.61
2023-04-23T08:04:11.488Z,58.70
2023-04-23T08:05:11.526Z,57.96
2023-04-23T08:06:11.207Z,59.49
2023-04-23T08:07:11.154Z,59.82
2023-04-23T08:08:11.032Z,60.62
2023-04-23T08:09:11.507Z,59.72
2023-04-23T08:10:48.115Z,60.96
2023-04-23T08:11:10.888Z,62.66
2023-04-23T08:12:10.844Z,60.55
2023-04-23T08:13:10.772Z,59.82
2023-04-23T08:14:10.716Z,59.92
2023-04-23T08:15:10.627Z,59.99
2023-04-23T08:16:10.686Z,59.59
2023-04-23T08:17:10.510Z,60.66
2023-04-23T08:18:10.443Z,59.13
2023-04-23T08:19:10.358Z,60.28
2023-04-23T08:20:10.294Z,57.45
2023-04-23T08:21:10.222Z,56.74
2023-04-23T08:22:10.216Z,57.05
2023-04-23T08:23:10.125Z,56.87
2023-04-23T08:24:10.111Z,57.95
2023-04-23T08:25:10.048Z,59.02
2023-04-23T08:26:09.979Z,57.42
2023-04-23T08:27:09.860Z,56.89
2023-04-23T08:28:09.911Z,55.57
2023-04-23T08:29:11.503Z,55.24
2023-04-23T08:30:09.750Z,55.57
2023-04-23T08:31:22.769Z,55.97
2023-04-23T08:32:09.687Z,55.07
2023-04-23T08:33:09.584Z,54.77
2023-04-23T08:34:09.443Z,55.24
2023-04-23T08:35:09.440Z,54.49
2023-04-23T08:36:09.340Z,55.27
2023-04-23T08:37:16.574Z,54.64
2023-04-23T08:38:09.197Z,55.80
2023-04-23T08:39:09.135Z,56.93
2023-04-23T08:40:09.121Z,57.53
2023-04-23T08:41:09.019Z,56.07
2023-04-23T08:42:08.984Z,56.74
2023-04-23T08:43:08.910Z,55.29
2023-04-23T08:44:08.854Z,53.44
2023-04-23T08:45:08.821Z,52.92
2023-04-23T08:47:47.698Z,53.99
2023-04-23T08:48:48.532Z,55.74
2023-04-23T08:49:48.457Z,56.37
2023-04-23T08:50:48.427Z,56.40
2023-04-23T08:51:48.387Z,57.15
2023-04-23T08:52:48.354Z,57.46
2023-04-23T08:53:48.239Z,57.46
2023-04-23T08:54:48.205Z,57.46
2023-04-23T08:55:48.148Z,56.15
2023-04-23T08:56:48.087Z,56.56
2023-04-23T08:57:47.985Z,56.65
2023-04-23T08:58:48.011Z,56.13
2023-04-23T08:59:47.882Z,55.40
2023-04-23T09:00:47.864Z,54.57
2023-04-23T09:01:47.794Z,53.57
2023-04-23T09:02:47.773Z,54.07
2023-04-23T09:03:47.732Z,55.20
2023-04-23T09:04:49.575Z,55.90
2023-04-23T09:05:47.540Z,55.40
2023-04-23T09:06:47.493Z,54.90
2023-04-23T09:07:47.412Z,55.02
2023-04-23T09:08:47.308Z,54.75
2023-04-23T09:09:47.270Z,56.85
2023-04-23T09:10:47.232Z,55.98
2023-04-23T09:11:47.125Z,56.08
2023-04-23T09:12:47.141Z,56.48
2023-04-23T09:13:47.034Z,55.75
2023-04-23T09:14:46.994Z,55.75
2023-04-23T09:15:46.981Z,54.75
2023-04-23T09:16:47.496Z,56.81
2023-04-23T09:17:46.839Z,58.70
2023-04-23T09:18:46.753Z,60.53
2023-04-23T09:19:46.677Z,59.41
2023-04-23T09:20:46.606Z,58.40
2023-04-23T09:21:46.573Z,56.54
2023-04-23T09:23:23.053Z,56.84
2023-04-23T09:23:46.489Z,57.08
2023-04-23T09:24:46.337Z,55.15
2023-04-23T09:25:46.300Z,55.00
2023-04-23T09:26:46.227Z,54.60
2023-04-23T09:27:46.217Z,54.17
2023-04-23T09:28:47.078Z,54.14
2023-04-23T09:29:46.069Z,54.32
2023-04-23T09:30:46.003Z,53.69
2023-04-23T09:31:45.982Z,53.57
2023-04-23T09:32:46.127Z,55.75
2023-04-23T09:33:45.856Z,56.58
2023-04-23T09:34:45.783Z,56.71
2023-04-23T09:35:46.452Z,56.30
2023-04-23T09:36:45.681Z,57.26
2023-04-23T09:37:45.556Z,58.83
2023-04-23T09:38:45.540Z,59.26
2023-04-23T09:39:45.473Z,60.52
2023-04-23T09:42:53.984Z,63.60
2023-04-23T09:43:54.928Z,62.46
2023-04-23T09:44:54.815Z,62.37
2023-04-23T09:45:54.781Z,62.70
2023-04-23T09:46:54.768Z,63.50
2023-04-23T09:47:54.696Z,62.52
2023-04-23T09:48:54.569Z,64.67
2023-04-23T09:49:54.514Z,64.07
2023-04-23T09:50:54.451Z,64.58
2023-04-23T09:51:54.398Z,65.01
2023-04-23T09:52:54.641Z,64.90
2023-04-23T09:53:54.269Z,65.92
2023-04-23T09:54:54.229Z,64.90
2023-04-23T09:55:54.161Z,66.19
2023-04-23T09:56:54.079Z,64.58
2023-04-23T09:57:54.084Z,65.48
2023-04-23T09:58:53.976Z,65.81
2023-04-23T10:00:00.535Z,65.01
2023-04-23T10:00:53.865Z,64.73
2023-04-23T10:01:53.802Z,65.14
2023-04-23T10:02:53.815Z,66.25
2023-04-23T10:03:53.895Z,65.11
2023-04-23T10:05:03.430Z,63.56
2023-04-23T10:06:01.383Z,63.43
2023-04-23T10:07:07.522Z,63.70
2023-04-23T10:07:53.449Z,63.14
2023-04-23T10:08:53.392Z,61.50
2023-04-23T10:09:53.307Z,60.24
2023-04-23T10:11:03.102Z,59.13
2023-04-23T10:11:53.185Z,59.46
2023-04-23T10:12:55.203Z,60.03
2023-04-23T10:13:53.089Z,59.41
2023-04-23T10:14:52.970Z,58.37
2023-04-23T10:15:53.027Z,59.45
2023-04-23T10:16:53.054Z,57.21
2023-04-23T10:17:52.936Z,56.48
2023-04-23T10:18:52.795Z,56.76
2023-04-23T10:19:52.713Z,55.43
2023-04-23T10:20:52.614Z,53.92
2023-04-23T10:21:56.159Z,54.02
2023-04-23T10:22:52.572Z,52.62
2023-04-23T10:23:52.469Z,53.14
2023-04-23T10:24:52.368Z,53.75
2023-04-23T10:25:52.358Z,53.95
2023-04-23T10:26:52.304Z,54.25
2023-04-23T10:27:54.356Z,53.12
2023-04-23T10:28:52.269Z,52.72
2023-04-23T10:29:52.110Z,53.14
2023-04-23T10:30:52.160Z,53.52
2023-04-23T10:31:51.937Z,53.02
2023-04-23T10:32:52.068Z,53.92
2023-04-23T10:33:59.029Z,53.30
2023-04-23T10:34:51.794Z,53.12
2023-04-23T10:35:51.745Z,54.52
2023-04-23T10:36:51.680Z,54.02
2023-04-23T10:37:51.601Z,55.73
2023-04-23T10:38:58.708Z,52.42
2023-04-23T10:39:51.490Z,53.14
2023-04-23T10:40:51.435Z,50.63
2023-04-23T10:41:51.353Z,51.32
2023-04-23T10:42:51.283Z,51.12
2023-04-23T10:43:51.233Z,53.34
2023-04-23T10:44:59.351Z,51.82
2023-04-23T10:45:51.120Z,50.84
2023-04-23T10:46:51.825Z,51.34
2023-04-23T10:47:51.030Z,50.74
2023-04-23T10:48:50.929Z,49.41
2023-04-23T10:49:50.868Z,47.41
2023-04-23T10:51:08.164Z,48.11
2023-04-23T10:53:08.084Z,50.62
2023-04-23T10:53:50.628Z,50.54
2023-04-23T10:54:51.514Z,50.99
2023-04-23T10:55:50.545Z,54.35
2023-04-23T10:56:50.457Z,53.88
2023-04-23T10:57:50.428Z,53.85
2023-04-23T10:58:50.366Z,54.05
2023-04-23T10:59:50.261Z,54.55
2023-04-23T11:00:50.243Z,55.66
2023-04-23T11:01:50.216Z,54.65
2023-04-23T11:02:50.178Z,55.35
2023-04-23T11:03:50.228Z,54.65
2023-04-23T11:04:50.008Z,54.75
2023-04-23T11:05:49.879Z,54.13
2023-04-23T11:06:49.859Z,54.96
2023-04-23T11:07:49.796Z,55.38
2023-04-23T11:08:50.952Z,55.18
2023-04-23T11:09:49.643Z,55.66
2023-04-23T11:11:10.558Z,55.23
2023-04-23T11:11:49.528Z,54.50
2023-04-23T11:12:49.466Z,53.77
2023-04-23T11:13:49.401Z,55.65
2023-04-23T11:14:49.376Z,53.22
2023-04-23T11:15:49.314Z,51.69
2023-04-23T11:16:49.254Z,49.89
2023-04-23T11:17:49.196Z,50.09
2023-04-23T11:18:49.105Z,49.91
2023-04-23T11:19:49.014Z,50.63
2023-04-23T11:20:48.987Z,49.28
2023-04-23T11:21:48.993Z,51.04
2023-04-23T11:22:48.871Z,51.18
2023-04-23T11:23:48.829Z,53.34
2023-04-23T11:24:50.759Z,53.47
2023-04-23T11:25:48.672Z,53.78
2023-04-23T11:26:48.590Z,55.06
2023-04-23T11:27:48.579Z,54.46
2023-04-23T11:29:09.495Z,53.05
2023-04-23T11:29:48.451Z,53.42
2023-04-23T11:30:48.367Z,52.92
2023-04-23T11:32:01.543Z,52.62
2023-04-23T11:32:48.312Z,52.42
2023-04-23T11:33:48.206Z,54.00
2023-04-23T11:34:48.154Z,53.77
2023-04-23T11:35:48.061Z,53.57
2023-04-23T11:36:47.993Z,52.17
2023-04-23T11:37:47.968Z,53.77
2023-04-23T11:38:47.932Z,54.98
2023-04-23T11:39:47.828Z,53.17
2023-04-23T11:40:47.776Z,52.97
2023-04-23T11:41:47.715Z,52.29
2023-04-23T11:42:47.611Z,53.50
2023-04-23T11:43:47.577Z,52.80
2023-04-23T11:44:47.518Z,52.62
2023-04-23T11:45:47.506Z,52.22
2023-04-23T11:46:47.377Z,53.63
2023-04-23T11:47:47.371Z,54.46
2023-04-23T11:48:47.268Z,53.05
2023-04-23T11:49:47.205Z,53.45
2023-04-23T11:50:47.168Z,51.54
2023-04-23T11:51:47.119Z,51.64
2023-04-23T11:52:47.025Z,52.44
2023-04-23T11:53:47.781Z,53.34
2023-04-23T11:54:46.968Z,52.04
2023-04-23T11:55:46.804Z,53.17
2023-04-23T11:56:46.765Z,52.67
2023-04-23T11:57:46.684Z,52.89
2023-04-23T11:58:47.310Z,53.40
2023-04-23T11:59:46.613Z,51.48
2023-04-23T12:00:46.535Z,52.39
2023-04-23T12:01:46.523Z,51.48
2023-04-23T12:02:46.539Z,51.40
2023-04-23T12:03:46.416Z,52.01
2023-04-23T12:04:46.317Z,50.60
2023-04-23T12:05:46.434Z,51.91
2023-04-23T12:06:46.283Z,51.48
2023-04-23T12:07:46.120Z,52.59
2023-04-23T12:08:46.055Z,53.60
2023-04-23T12:09:45.964Z,54.00
2023-04-23T12:10:45.934Z,54.10
2023-04-23T12:11:45.843Z,55.11
2023-04-23T12:12:45.845Z,56.42
2023-04-23T12:13:45.741Z,57.25
2023-04-23T12:14:45.695Z,57.12
2023-04-23T12:15:45.634Z,56.82
2023-04-23T12:16:45.550Z,55.71
2023-04-23T12:17:45.461Z,55.82
2023-04-23T12:18:45.440Z,56.42
2023-04-23T12:19:45.358Z,56.40
2023-04-23T12:20:45.340Z,55.96
2023-04-23T12:21:45.299Z,55.13
2023-04-23T12:23:02.783Z,56.21
2023-04-23T12:23:45.497Z,54.17
2023-04-23T12:24:45.052Z,53.65
2023-04-23T12:25:44.980Z,53.92
2023-04-23T12:26:45.032Z,53.00
2023-04-23T12:27:44.861Z,51.87
2023-04-23T12:28:44.808Z,52.37
2023-04-23T12:29:44.758Z,52.14
2023-04-23T12:30:44.680Z,51.56
2023-04-23T12:31:44.666Z,51.17
2023-04-23T12:32:44.574Z,51.17
2023-04-23T12:33:44.503Z,51.56
2023-04-23T12:34:44.507Z,52.29
2023-04-23T12:35:44.400Z,51.92
2023-04-23T12:36:44.282Z,53.22
2023-04-23T12:37:44.278Z,52.92
2023-04-23T12:38:44.197Z,52.22
2023-04-23T12:39:44.286Z,52.62
2023-04-23T12:41:18.688Z,52.62
2023-04-23T12:41:43.978Z,52.72
2023-04-23T12:42:43.976Z,52.01
2023-04-23T12:43:43.876Z,52.51
2023-04-23T12:44:43.826Z,49.80
2023-04-23T12:45:43.754Z,48.60
2023-04-23T12:46:43.720Z,48.80
2023-04-23T12:47:43.691Z,50.13
2023-04-23T12:48:43.574Z,48.83
2023-04-23T12:49:43.948Z,49.53
2023-04-23T12:50:43.516Z,49.33
2023-04-23T12:51:43.412Z,49.43
2023-04-23T12:52:43.329Z,49.22
2023-04-23T12:53:43.270Z,50.03
2023-04-23T12:54:43.204Z,49.02
2023-04-23T12:55:43.177Z,49.63
2023-04-23T12:56:43.109Z,48.95
2023-04-23T12:57:43.045Z,50.96